Accueil
METAR-TAF:

METAR-TAF

Aéroports :

Manokotak, Alaska, États-Unis

latitude: 58-59-19N, longitude: 159-02-56W, altitude: 16 m

Observation

Le bulletin a été fait il y a 1 heure et 7 minutes, à 22:56 UTC
Vent 9 kt de nord/nord-est
Température -23°C
Humidité 48%
Pression 996 hPa
Visibilité: 16.1 km
Ciel clair

METAR: PAMB 282256Z AUTO 02009KT 10SM CLR M23/M31 A2942 RMK AO2 SLPNO T12331311 FZRANO $

Heure: 15:03 (00:03 UTC)


TAF: absent

Observations et prévisions météorologiques de plus de 4000 aéroports (messages METAR et TAF).

Les stations disponibles sont représentées par des disques jaunes et rouges sur la carte.

Passer la souris dessus pour voir le nom de la station.

Cliquer dessus pour voir les observations et prévisions météorologiques.

Pour changer de carte: cliquez sur les boutons verts avec une croix noire pour zoomer, sur le bouton vert avec un tiret pour effectuer un zoom arrière, ou sur les flèches vertes pour les cartes adjacentes.


METAR-TAF: